New Market, Maryland
Current Conditions -  °F | °C
As of 9:55 PM on Friday 21 Nov 2014 (Local Time) from KFDK Reporting Station
Light Snow Light Snow  
Wind Chill: 25°   Ceiling: Unl
Heat Index: 25°   Visibility: 10mi
Dew Point: 18°   Wind: 3mph
Humidity: 74%   Direction: 170°S
Pressure: 30.58"   Gusts: NA
Location:  39.38°N, 77.27°W
Report Text: KFDK 220255Z AUTO 17003KT 10SM -SN CLR M04/M08 A3058 RMK AO2
Loading
Personal Weather Stations






























Interactive Weather Map New forecast layout! Learn more

10-Day Weather Forecast

Advertisements
Track Severe Weather on mobile